Sudoku Kaponor — FAC8644 — position and weather

sailwx.info

Track history (hours):
 
Tides and Currents Weather Stations Pressure Air Temp Water Temp Dewpoint Dewpoint Depression Visibility Wind Speed Wind Dir Waves Ship Positions

Sudoku Kaponor

Last reported at 2017-Aug-26 09:56 UTC. Time now 2017-Sep-21 03:35 UTC.
Position N 46°09' W 001°10'.
Warning: this ship's position is 25 days out of date.

Length 10 m.

Type: Sailing vessel. MMSI: 227357170.

Date/timePositionNaut miles runAvg speedWind from/ knotsBaromVisibWave heightAir tempDewpointWater temp
2017-Aug-26 09:56N 46°09' W 001°10'27 1.4
2017-Aug-25 14:12N 46°21' W 001°44'4 5.8
2017-Aug-25 13:29N 46°24' W 001°49'4 5.4
2017-Aug-25 12:40N 46°26' W 001°55'1 5.5
2017-Aug-25 12:27N 46°27' W 001°56'  
2017-Aug-22 17:36N 47°23' W 002°57'0 0.0
2017-Aug-22 17:30N 47°23' W 002°57'2 0.1
2017-Aug-21 15:18N 47°24' W 003°00'6 4.8
2017-Aug-21 14:01N 47°27' W 003°07'1 6.4
2017-Aug-21 13:50N 47°28' W 003°09'2 4.5
2017-Aug-21 13:23N 47°29' W 003°11'3 4.9
2017-Aug-21 12:49N 47°31' W 003°14'2 5.3
2017-Aug-21 12:22N 47°33' W 003°16'2 4.9
2017-Aug-21 11:53N 47°35' W 003°19'1 3.8
2017-Aug-21 11:30N 47°36' W 003°20'2 3.9
2017-Aug-21 11:00N 47°37' W 003°22'2 4.3
2017-Aug-21 10:30N 47°38' W 003°25'1 0.1
2017-Aug-20 11:18N 47°39' W 003°27'1 2.1
2017-Aug-20 11:00N 47°39' W 003°27'  
2017-Aug-17 10:57N 47°37' W 003°35'3 6.1
2017-Aug-17 10:29N 47°35' W 003°32'3 5.7
2017-Aug-17 10:00N 47°33' W 003°28'3 5.3
2017-Aug-17 09:30N 47°31' W 003°25'3 5.5
2017-Aug-17 09:00N 47°29' W 003°23'3 6.2
2017-Aug-17 08:30N 47°27' W 003°19'3 5.5
2017-Aug-17 08:00N 47°25' W 003°17'4 0.2
2017-Aug-16 12:58N 47°23' W 003°13'3 5.5
2017-Aug-16 12:28N 47°22' W 003°09'3 5.6
2017-Aug-16 11:51N 47°22' W 003°04'  
Track history (hours):
 
Tides and Currents Weather Stations Pressure Air Temp Water Temp Dewpoint Dewpoint Depression Visibility Wind Speed Wind Dir Waves Ship Positions

Sudoku Kaponor

Last reported at 2017-Aug-26 09:56 UTC. Time now 2017-Sep-21 03:35 UTC.
Position N 46°09' W 001°10'.
Warning: this ship's position is 25 days out of date.

Length 10 m.

Type: Sailing vessel. MMSI: 227357170.

Date/timePositionNaut miles runAvg speedWind from/ knotsBaromVisibWave heightAir tempDewpointWater temp
2017-Aug-26 09:56N 46°09' W 001°10'27 1.4
2017-Aug-25 14:12N 46°21' W 001°44'4 5.8
2017-Aug-25 13:29N 46°24' W 001°49'4 5.4
2017-Aug-25 12:40N 46°26' W 001°55'1 5.5
2017-Aug-25 12:27N 46°27' W 001°56'  
2017-Aug-22 17:36N 47°23' W 002°57'0 0.0
2017-Aug-22 17:30N 47°23' W 002°57'2 0.1
2017-Aug-21 15:18N 47°24' W 003°00'6 4.8
2017-Aug-21 14:01N 47°27' W 003°07'1 6.4
2017-Aug-21 13:50N 47°28' W 003°09'2 4.5
2017-Aug-21 13:23N 47°29' W 003°11'3 4.9
2017-Aug-21 12:49N 47°31' W 003°14'2 5.3
2017-Aug-21 12:22N 47°33' W 003°16'2 4.9
2017-Aug-21 11:53N 47°35' W 003°19'1 3.8
2017-Aug-21 11:30N 47°36' W 003°20'2 3.9
2017-Aug-21 11:00N 47°37' W 003°22'2 4.3
2017-Aug-21 10:30N 47°38' W 003°25'1 0.1
2017-Aug-20 11:18N 47°39' W 003°27'1 2.1
2017-Aug-20 11:00N 47°39' W 003°27'  
2017-Aug-17 10:57N 47°37' W 003°35'3 6.1
2017-Aug-17 10:29N 47°35' W 003°32'3 5.7
2017-Aug-17 10:00N 47°33' W 003°28'3 5.3
2017-Aug-17 09:30N 47°31' W 003°25'3 5.5
2017-Aug-17 09:00N 47°29' W 003°23'3 6.2
2017-Aug-17 08:30N 47°27' W 003°19'3 5.5
2017-Aug-17 08:00N 47°25' W 003°17'4 0.2
2017-Aug-16 12:58N 47°23' W 003°13'3 5.5
2017-Aug-16 12:28N 47°22' W 003°09'3 5.6
2017-Aug-16 11:51N 47°22' W 003°04'  

Dump ship's entire track history